sensor_id;sensor_type;location;lat;lon;timestamp;temperature;humidity
21563;DHT22;10942;47.894;11.424;2024-01-15T00:00:07;1.20;99.90
21563;DHT22;10942;47.894;11.424;2024-01-15T00:02:37;1.20;99.90
21563;DHT22;10942;47.894;11.424;2024-01-15T00:05:02;1.10;99.90
21563;DHT22;10942;47.894;11.424;2024-01-15T00:07:28;1.10;99.90
21563;DHT22;10942;47.894;11.424;2024-01-15T00:09:54;1.10;99.90
21563;DHT22;10942;47.894;11.424;2024-01-15T00:12:20;1.10;99.90
21563;DHT22;10942;47.894;11.424;2024-01-15T00:14:46;1.00;99.90
21563;DHT22;10942;47.894;11.424;2024-01-15T00:17:11;1.00;99.90
21563;DHT22;10942;47.894;11.424;2024-01-15T00:19:38;1.00;99.90
21563;DHT22;10942;47.894;11.424;2024-01-15T00:22:04;1.00;99.90
21563;DHT22;10942;47.894;11.424;2024-01-15T00:24:30;0.90;99.90
21563;DHT22;10942;47.894;11.424;2024-01-15T00:26:55;0.90;99.90
21563;DHT22;10942;47.894;11.424;2024-01-15T00:29:21;0.80;99.90
21563;DHT22;10942;47.894;11.424;2024-01-15T00:31:47;0.80;99.90
21563;DHT22;10942;47.894;11.424;2024-01-15T00:34:13;0.80;99.90
21563;DHT22;10942;47.894;11.424;2024-01-15T00:36:38;0.80;99.90
21563;DHT22;10942;47.894;11.424;2024-01-15T00:39:05;0.70;99.90
21563;DHT22;10942;47.894;11.424;2024-01-15T00:41:31;0.70;99.90
21563;DHT22;10942;47.894;11.424;2024-01-15T00:43:57;0.70;99.90
21563;DHT22;10942;47.894;11.424;2024-01-15T00:46:23;0.60;99.90
21563;DHT22;10942;47.894;11.424;2024-01-15T00:48:48;0.60;99.90
21563;DHT22;10942;47.894;11.424;2024-01-15T00:51:14;0.50;99.90
21563;DHT22;10942;47.894;11.424;2024-01-15T00:53:40;0.50;99.90
21563;DHT22;10942;47.894;11.424;2024-01-15T00:56:06;0.60;99.90
21563;DHT22;10942;47.894;11.424;2024-01-15T00:58:31;0.50;99.90
21563;DHT22;10942;47.894;11.424;2024-01-15T01:00:57;0.50;99.90
21563;DHT22;10942;47.894;11.424;2024-01-15T01:03:23;0.60;99.90
21563;DHT22;10942;47.894;11.424;2024-01-15T01:05:49;0.50;99.90
21563;DHT22;10942;47.894;11.424;2024-01-15T01:08:17;0.50;99.90
21563;DHT22;10942;47.894;11.424;2024-01-15T01:10:43;0.40;99.90
21563;DHT22;10942;47.894;11.424;2024-01-15T01:13:09;0.40;99.90
21563;DHT22;10942;47.894;11.424;2024-01-15T01:15:35;0.40;99.90
21563;DHT22;10942;47.894;11.424;2024-01-15T01:18:00;0.40;99.90
21563;DHT22;10942;47.894;11.424;2024-01-15T01:20:26;0.40;99.90
21563;DHT22;10942;47.894;11.424;2024-01-15T01:22:51;0.40;99.90
21563;DHT22;10942;47.894;11.424;2024-01-15T01:25:17;0.40;99.90
21563;DHT22;10942;47.894;11.424;2024-01-15T01:27:43;0.40;99.90
21563;DHT22;10942;47.894;11.424;2024-01-15T01:30:09;0.50;99.90
21563;DHT22;10942;47.894;11.424;2024-01-15T01:32:34;0.50;99.90
21563;DHT22;10942;47.894;11.424;2024-01-15T01:35:00;0.50;99.90
21563;DHT22;10942;47.894;11.424;2024-01-15T01:37:26;0.50;99.90
21563;DHT22;10942;47.894;11.424;2024-01-15T01:39:52;0.50;99.90
21563;DHT22;10942;47.894;11.424;2024-01-15T01:42:17;0.50;99.90
21563;DHT22;10942;47.894;11.424;2024-01-15T01:44:43;0.50;99.90
21563;DHT22;10942;47.894;11.424;2024-01-15T01:47:09;0.50;99.90
21563;DHT22;10942;47.894;11.424;2024-01-15T01:49:35;0.50;99.90
21563;DHT22;10942;47.894;11.424;2024-01-15T01:52:02;0.40;99.90
21563;DHT22;10942;47.894;11.424;2024-01-15T01:54:32;0.40;99.90
21563;DHT22;10942;47.894;11.424;2024-01-15T01:56:58;0.40;99.90
21563;DHT22;10942;47.894;11.424;2024-01-15T01:59:26;0.40;99.90
21563;DHT22;10942;47.894;11.424;2024-01-15T02:01:54;0.30;99.90
21563;DHT22;10942;47.894;11.424;2024-01-15T02:04:24;0.30;99.90
21563;DHT22;10942;47.894;11.424;2024-01-15T02:06:51;0.20;99.90
21563;DHT22;10942;47.894;11.424;2024-01-15T02:09:18;0.10;99.90
21563;DHT22;10942;47.894;11.424;2024-01-15T02:11:46;0.10;99.90
21563;DHT22;10942;47.894;11.424;2024-01-15T02:14:11;0.00;99.90
21563;DHT22;10942;47.894;11.424;2024-01-15T02:16:37;0.00;99.90
21563;DHT22;10942;47.894;11.424;2024-01-15T02:19:03;0.00;99.90
21563;DHT22;10942;47.894;11.424;2024-01-15T02:21:28;-0.10;99.90
21563;DHT22;10942;47.894;11.424;2024-01-15T02:23:55;-0.10;99.90
21563;DHT22;10942;47.894;11.424;2024-01-15T02:26:21;-0.20;99.90
21563;DHT22;10942;47.894;11.424;2024-01-15T02:28:48;-0.30;99.90
21563;DHT22;10942;47.894;11.424;2024-01-15T02:31:14;-0.30;99.90
21563;DHT22;10942;47.894;11.424;2024-01-15T02:33:39;-0.40;99.90
21563;DHT22;10942;47.894;11.424;2024-01-15T02:36:05;-0.40;99.90
21563;DHT22;10942;47.894;11.424;2024-01-15T02:38:31;-0.50;99.90
21563;DHT22;10942;47.894;11.424;2024-01-15T02:40:57;-0.60;99.90
21563;DHT22;10942;47.894;11.424;2024-01-15T02:43:23;-0.50;99.90
21563;DHT22;10942;47.894;11.424;2024-01-15T02:45:48;-0.60;99.90
21563;DHT22;10942;47.894;11.424;2024-01-15T02:48:14;-0.70;99.90
21563;DHT22;10942;47.894;11.424;2024-01-15T02:50:40;-0.70;99.90
21563;DHT22;10942;47.894;11.424;2024-01-15T02:53:06;-0.70;99.90
21563;DHT22;10942;47.894;11.424;2024-01-15T02:55:31;-0.80;99.90
21563;DHT22;10942;47.894;11.424;2024-01-15T02:57:57;-0.70;99.90
21563;DHT22;10942;47.894;11.424;2024-01-15T03:00:23;-0.70;99.90
21563;DHT22;10942;47.894;11.424;2024-01-15T03:02:50;-0.70;99.90
21563;DHT22;10942;47.894;11.424;2024-01-15T03:05:16;-0.80;99.90
21563;DHT22;10942;47.894;11.424;2024-01-15T03:07:42;-0.90;99.90
21563;DHT22;10942;47.894;11.424;2024-01-15T03:10:08;-0.90;99.90
21563;DHT22;10942;47.894;11.424;2024-01-15T03:12:34;-0.90;99.90
21563;DHT22;10942;47.894;11.424;2024-01-15T03:15:00;-0.90;99.90
21563;DHT22;10942;47.894;11.424;2024-01-15T03:17:25;-1.00;99.90
21563;DHT22;10942;47.894;11.424;2024-01-15T03:19:51;-1.00;99.90
21563;DHT22;10942;47.894;11.424;2024-01-15T03:22:17;-1.00;99.90
21563;DHT22;10942;47.894;11.424;2024-01-15T03:24:43;-1.00;99.90
21563;DHT22;10942;47.894;11.424;2024-01-15T03:27:09;-1.00;99.90
21563;DHT22;10942;47.894;11.424;2024-01-15T03:29:35;-1.00;99.90
21563;DHT22;10942;47.894;11.424;2024-01-15T03:32:00;-1.10;99.90
21563;DHT22;10942;47.894;11.424;2024-01-15T03:34:26;-1.10;99.90
21563;DHT22;10942;47.894;11.424;2024-01-15T03:36:52;-1.10;99.90
21563;DHT22;10942;47.894;11.424;2024-01-15T03:39:17;-1.10;99.90
21563;DHT22;10942;47.894;11.424;2024-01-15T03:41:43;-1.20;99.90
21563;DHT22;10942;47.894;11.424;2024-01-15T03:44:09;-1.20;99.90
21563;DHT22;10942;47.894;11.424;2024-01-15T03:46:34;-1.20;99.90
21563;DHT22;10942;47.894;11.424;2024-01-15T03:49:00;-1.10;99.90
21563;DHT22;10942;47.894;11.424;2024-01-15T03:51:26;-1.20;99.90
21563;DHT22;10942;47.894;11.424;2024-01-15T03:53:51;-1.10;99.90
21563;DHT22;10942;47.894;11.424;2024-01-15T03:56:17;-1.10;99.90
21563;DHT22;10942;47.894;11.424;2024-01-15T04:30:26;-0.80;99.90
21563;DHT22;10942;47.894;11.424;2024-01-15T08:39:12;-0.30;99.90
21563;DHT22;10942;47.894;11.424;2024-01-15T08:41:37;-0.30;99.90
21563;DHT22;10942;47.894;11.424;2024-01-15T08:44:03;-0.30;99.90
21563;DHT22;10942;47.894;11.424;2024-01-15T08:46:29;-0.40;99.90
21563;DHT22;10942;47.894;11.424;2024-01-15T08:48:55;-0.40;99.90
21563;DHT22;10942;47.894;11.424;2024-01-15T08:51:20;-0.40;99.90
21563;DHT22;10942;47.894;11.424;2024-01-15T08:53:46;-0.40;99.90
21563;DHT22;10942;47.894;11.424;2024-01-15T08:56:12;-0.40;99.90
21563;DHT22;10942;47.894;11.424;2024-01-15T08:58:37;-0.40;99.90
21563;DHT22;10942;47.894;11.424;2024-01-15T09:01:03;-0.40;99.90
21563;DHT22;10942;47.894;11.424;2024-01-15T09:03:30;-0.30;99.90
21563;DHT22;10942;47.894;11.424;2024-01-15T09:05:55;-0.30;99.90
21563;DHT22;10942;47.894;11.424;2024-01-15T09:08:21;-0.30;99.90
21563;DHT22;10942;47.894;11.424;2024-01-15T09:10:47;-0.30;99.90
21563;DHT22;10942;47.894;11.424;2024-01-15T09:13:13;-0.30;99.90
21563;DHT22;10942;47.894;11.424;2024-01-15T09:15:38;-0.30;99.90
21563;DHT22;10942;47.894;11.424;2024-01-15T09:18:04;-0.30;99.90
21563;DHT22;10942;47.894;11.424;2024-01-15T09:20:30;-0.30;99.90
21563;DHT22;10942;47.894;11.424;2024-01-15T09:22:56;-0.30;99.90
21563;DHT22;10942;47.894;11.424;2024-01-15T09:25:22;-0.30;99.90
21563;DHT22;10942;47.894;11.424;2024-01-15T09:27:47;-0.30;99.90
21563;DHT22;10942;47.894;11.424;2024-01-15T09:30:13;-0.30;99.90
21563;DHT22;10942;47.894;11.424;2024-01-15T09:32:39;-0.30;99.90
21563;DHT22;10942;47.894;11.424;2024-01-15T09:59:31;-0.10;99.90
21563;DHT22;10942;47.894;11.424;2024-01-15T10:04:24;-0.10;99.90
21563;DHT22;10942;47.894;11.424;2024-01-15T10:06:51;-0.30;99.90
21563;DHT22;10942;47.894;11.424;2024-01-15T10:09:17;-0.20;99.90
21563;DHT22;10942;47.894;11.424;2024-01-15T10:11:44;-0.20;99.90
21563;DHT22;10942;47.894;11.424;2024-01-15T10:14:13;-0.40;99.90
21563;DHT22;10942;47.894;11.424;2024-01-15T10:16:42;-0.40;99.90
21563;DHT22;10942;47.894;11.424;2024-01-15T10:19:09;-0.40;99.90
21563;DHT22;10942;47.894;11.424;2024-01-15T10:21:35;-0.30;99.90
21563;DHT22;10942;47.894;11.424;2024-01-15T10:24:02;-0.40;99.90
21563;DHT22;10942;47.894;11.424;2024-01-15T10:26:28;-0.40;99.90
21563;DHT22;10942;47.894;11.424;2024-01-15T10:28:54;-0.40;99.90
21563;DHT22;10942;47.894;11.424;2024-01-15T10:31:20;-0.40;99.90
21563;DHT22;10942;47.894;11.424;2024-01-15T10:33:50;-0.50;99.90
21563;DHT22;10942;47.894;11.424;2024-01-15T10:36:16;-0.60;99.90
21563;DHT22;10942;47.894;11.424;2024-01-15T10:38:46;-0.50;99.90
21563;DHT22;10942;47.894;11.424;2024-01-15T10:41:12;-0.60;99.90
21563;DHT22;10942;47.894;11.424;2024-01-15T10:43:38;-0.50;99.90
21563;DHT22;10942;47.894;11.424;2024-01-15T10:46:06;-0.70;99.90
21563;DHT22;10942;47.894;11.424;2024-01-15T10:48:33;-0.70;99.90
21563;DHT22;10942;47.894;11.424;2024-01-15T10:51:01;-0.60;99.90
21563;DHT22;10942;47.894;11.424;2024-01-15T10:53:37;-0.50;99.90
21563;DHT22;10942;47.894;11.424;2024-01-15T10:56:05;-0.40;99.90
21563;DHT22;10942;47.894;11.424;2024-01-15T10:58:31;-0.30;99.90
21563;DHT22;10942;47.894;11.424;2024-01-15T11:00:59;-0.20;99.90
21563;DHT22;10942;47.894;11.424;2024-01-15T11:03:25;-0.10;99.90
21563;DHT22;10942;47.894;11.424;2024-01-15T11:05:50;-0.10;99.90
21563;DHT22;10942;47.894;11.424;2024-01-15T11:08:18;0.00;99.90
21563;DHT22;10942;47.894;11.424;2024-01-15T11:10:50;0.00;99.90
21563;DHT22;10942;47.894;11.424;2024-01-15T11:16:03;0.10;99.90
21563;DHT22;10942;47.894;11.424;2024-01-15T11:18:36;0.20;99.90
21563;DHT22;10942;47.894;11.424;2024-01-15T11:24:00;0.20;99.90
21563;DHT22;10942;47.894;11.424;2024-01-15T11:29:09;0.10;99.90
21563;DHT22;10942;47.894;11.424;2024-01-15T11:34:05;0.20;99.90
21563;DHT22;10942;47.894;11.424;2024-01-15T11:42:02;0.30;99.90
21563;DHT22;10942;47.894;11.424;2024-01-15T11:44:31;0.30;99.90
21563;DHT22;10942;47.894;11.424;2024-01-15T11:47:04;0.30;99.90
21563;DHT22;10942;47.894;11.424;2024-01-15T11:50:01;0.40;99.90
21563;DHT22;10942;47.894;11.424;2024-01-15T11:53:00;0.40;99.90
21563;DHT22;10942;47.894;11.424;2024-01-15T11:55:41;0.50;99.90
21563;DHT22;10942;47.894;11.424;2024-01-15T11:58:10;0.50;99.90
21563;DHT22;10942;47.894;11.424;2024-01-15T12:00:47;0.50;99.90
21563;DHT22;10942;47.894;11.424;2024-01-15T12:03:14;0.60;99.90
21563;DHT22;10942;47.894;11.424;2024-01-15T12:05:40;0.50;99.90
21563;DHT22;10942;47.894;11.424;2024-01-15T12:08:09;0.50;99.90
21563;DHT22;10942;47.894;11.424;2024-01-15T12:10:38;0.50;99.90
21563;DHT22;10942;47.894;11.424;2024-01-15T12:13:13;0.40;99.90
21563;DHT22;10942;47.894;11.424;2024-01-15T12:15:41;0.50;99.90
21563;DHT22;10942;47.894;11.424;2024-01-15T12:18:08;0.50;99.90
21563;DHT22;10942;47.894;11.424;2024-01-15T12:20:35;0.50;99.90
21563;DHT22;10942;47.894;11.424;2024-01-15T12:23:01;0.60;99.90
21563;DHT22;10942;47.894;11.424;2024-01-15T12:25:32;0.50;99.90
21563;DHT22;10942;47.894;11.424;2024-01-15T12:28:01;0.50;99.90
21563;DHT22;10942;47.894;11.424;2024-01-15T12:30:28;0.60;99.90
21563;DHT22;10942;47.894;11.424;2024-01-15T12:32:54;0.60;99.90
21563;DHT22;10942;47.894;11.424;2024-01-15T12:35:20;0.60;99.90
21563;DHT22;10942;47.894;11.424;2024-01-15T12:40:12;0.70;99.90
21563;DHT22;10942;47.894;11.424;2024-01-15T12:42:40;0.80;99.90
21563;DHT22;10942;47.894;11.424;2024-01-15T12:45:06;0.80;99.90
21563;DHT22;10942;47.894;11.424;2024-01-15T12:47:32;0.80;99.90
21563;DHT22;10942;47.894;11.424;2024-01-15T12:49:58;0.90;99.90
21563;DHT22;10942;47.894;11.424;2024-01-15T12:52:30;0.90;99.90
21563;DHT22;10942;47.894;11.424;2024-01-15T12:54:57;1.00;99.90
21563;DHT22;10942;47.894;11.424;2024-01-15T12:57:22;0.90;99.90
21563;DHT22;10942;47.894;11.424;2024-01-15T12:59:48;0.90;99.90
21563;DHT22;10942;47.894;11.424;2024-01-15T13:02:16;0.90;99.90
21563;DHT22;10942;47.894;11.424;2024-01-15T13:04:44;1.00;99.90
21563;DHT22;10942;47.894;11.424;2024-01-15T13:07:10;1.00;99.90
21563;DHT22;10942;47.894;11.424;2024-01-15T13:09:36;1.00;99.90
21563;DHT22;10942;47.894;11.424;2024-01-15T13:12:02;1.00;99.90
21563;DHT22;10942;47.894;11.424;2024-01-15T13:14:28;1.00;99.90
21563;DHT22;10942;47.894;11.424;2024-01-15T13:16:54;1.10;99.90
21563;DHT22;10942;47.894;11.424;2024-01-15T13:19:20;1.10;99.90
21563;DHT22;10942;47.894;11.424;2024-01-15T13:21:47;1.10;99.90
21563;DHT22;10942;47.894;11.424;2024-01-15T13:24:13;1.10;99.90
21563;DHT22;10942;47.894;11.424;2024-01-15T13:26:39;1.10;99.90
21563;DHT22;10942;47.894;11.424;2024-01-15T13:29:05;1.20;99.90
21563;DHT22;10942;47.894;11.424;2024-01-15T13:31:31;1.10;99.90
21563;DHT22;10942;47.894;11.424;2024-01-15T13:33:57;1.20;99.90
21563;DHT22;10942;47.894;11.424;2024-01-15T13:36:24;1.10;99.90
21563;DHT22;10942;47.894;11.424;2024-01-15T13:38:50;1.10;99.90
21563;DHT22;10942;47.894;11.424;2024-01-15T13:41:17;1.20;99.90
21563;DHT22;10942;47.894;11.424;2024-01-15T13:43:55;1.20;99.90
21563;DHT22;10942;47.894;11.424;2024-01-15T13:46:24;1.20;99.90
21563;DHT22;10942;47.894;11.424;2024-01-15T13:48:50;1.10;99.90
21563;DHT22;10942;47.894;11.424;2024-01-15T13:51:16;1.10;99.90
21563;DHT22;10942;47.894;11.424;2024-01-15T13:53:41;1.10;99.90
21563;DHT22;10942;47.894;11.424;2024-01-15T13:56:07;1.00;99.90
21563;DHT22;10942;47.894;11.424;2024-01-15T13:58:35;1.10;99.90
21563;DHT22;10942;47.894;11.424;2024-01-15T14:01:01;1.10;99.90
21563;DHT22;10942;47.894;11.424;2024-01-15T14:03:29;1.00;99.90
21563;DHT22;10942;47.894;11.424;2024-01-15T14:05:55;1.10;99.90
21563;DHT22;10942;47.894;11.424;2024-01-15T14:08:21;1.10;99.90
21563;DHT22;10942;47.894;11.424;2024-01-15T14:10:46;1.10;99.90
21563;DHT22;10942;47.894;11.424;2024-01-15T14:13:12;1.10;99.90
21563;DHT22;10942;47.894;11.424;2024-01-15T14:15:38;1.10;99.90
21563;DHT22;10942;47.894;11.424;2024-01-15T14:18:04;1.10;99.90
21563;DHT22;10942;47.894;11.424;2024-01-15T14:20:30;0.90;99.90
21563;DHT22;10942;47.894;11.424;2024-01-15T14:22:56;0.90;99.90
21563;DHT22;10942;47.894;11.424;2024-01-15T14:25:22;0.90;99.90
21563;DHT22;10942;47.894;11.424;2024-01-15T14:27:47;0.90;99.90
21563;DHT22;10942;47.894;11.424;2024-01-15T14:30:13;0.90;99.90
21563;DHT22;10942;47.894;11.424;2024-01-15T14:32:44;0.80;99.90
21563;DHT22;10942;47.894;11.424;2024-01-15T14:35:10;0.80;99.90
21563;DHT22;10942;47.894;11.424;2024-01-15T14:37:39;0.90;99.90
21563;DHT22;10942;47.894;11.424;2024-01-15T14:40:06;0.90;99.90
21563;DHT22;10942;47.894;11.424;2024-01-15T14:42:36;0.80;99.90
21563;DHT22;10942;47.894;11.424;2024-01-15T14:45:03;0.80;99.90
21563;DHT22;10942;47.894;11.424;2024-01-15T14:47:31;0.80;99.90
21563;DHT22;10942;47.894;11.424;2024-01-15T14:49:57;0.70;99.90
21563;DHT22;10942;47.894;11.424;2024-01-15T14:52:23;0.70;99.90
21563;DHT22;10942;47.894;11.424;2024-01-15T14:54:49;0.60;99.90
21563;DHT22;10942;47.894;11.424;2024-01-15T14:57:15;0.70;99.90
21563;DHT22;10942;47.894;11.424;2024-01-15T14:59:41;0.60;99.90
21563;DHT22;10942;47.894;11.424;2024-01-15T15:02:07;0.60;99.90
21563;DHT22;10942;47.894;11.424;2024-01-15T15:04:33;0.60;99.90
21563;DHT22;10942;47.894;11.424;2024-01-15T15:06:58;0.60;99.90
21563;DHT22;10942;47.894;11.424;2024-01-15T15:09:24;0.60;99.90
21563;DHT22;10942;47.894;11.424;2024-01-15T15:11:50;0.60;99.90
21563;DHT22;10942;47.894;11.424;2024-01-15T15:14:17;0.50;99.90
21563;DHT22;10942;47.894;11.424;2024-01-15T15:16:43;0.50;99.90
21563;DHT22;10942;47.894;11.424;2024-01-15T15:19:09;0.50;99.90
21563;DHT22;10942;47.894;11.424;2024-01-15T15:21:35;0.50;99.90
21563;DHT22;10942;47.894;11.424;2024-01-15T15:24:01;0.50;99.90
21563;DHT22;10942;47.894;11.424;2024-01-15T15:26:27;0.50;99.90
21563;DHT22;10942;47.894;11.424;2024-01-15T15:28:53;0.50;99.90
21563;DHT22;10942;47.894;11.424;2024-01-15T15:31:19;0.50;99.90
21563;DHT22;10942;47.894;11.424;2024-01-15T15:33:44;0.30;99.90
21563;DHT22;10942;47.894;11.424;2024-01-15T15:36:10;0.50;99.90
21563;DHT22;10942;47.894;11.424;2024-01-15T15:38:36;0.40;99.90
21563;DHT22;10942;47.894;11.424;2024-01-15T15:41:02;0.40;99.90
21563;DHT22;10942;47.894;11.424;2024-01-15T15:43:28;0.40;99.90
21563;DHT22;10942;47.894;11.424;2024-01-15T15:45:54;0.40;99.90
21563;DHT22;10942;47.894;11.424;2024-01-15T15:48:19;0.40;99.90
21563;DHT22;10942;47.894;11.424;2024-01-15T15:50:45;0.40;99.90
21563;DHT22;10942;47.894;11.424;2024-01-15T15:53:11;0.40;99.90
21563;DHT22;10942;47.894;11.424;2024-01-15T15:55:37;0.40;99.90
21563;DHT22;10942;47.894;11.424;2024-01-15T15:58:04;0.40;99.90
21563;DHT22;10942;47.894;11.424;2024-01-15T16:00:30;0.40;99.90
21563;DHT22;10942;47.894;11.424;2024-01-15T16:02:56;0.40;99.90
21563;DHT22;10942;47.894;11.424;2024-01-15T16:05:21;0.30;99.90
21563;DHT22;10942;47.894;11.424;2024-01-15T16:07:47;0.30;99.90
21563;DHT22;10942;47.894;11.424;2024-01-15T16:10:13;0.30;99.90
21563;DHT22;10942;47.894;11.424;2024-01-15T16:12:40;0.30;99.90
21563;DHT22;10942;47.894;11.424;2024-01-15T16:15:22;0.30;99.90
21563;DHT22;10942;47.894;11.424;2024-01-15T16:17:49;0.30;99.90
21563;DHT22;10942;47.894;11.424;2024-01-15T16:20:19;0.40;99.90
21563;DHT22;10942;47.894;11.424;2024-01-15T16:22:45;0.30;99.90
21563;DHT22;10942;47.894;11.424;2024-01-15T16:25:11;0.40;99.90
21563;DHT22;10942;47.894;11.424;2024-01-15T16:27:37;0.30;99.90
21563;DHT22;10942;47.894;11.424;2024-01-15T16:30:04;0.30;99.90
21563;DHT22;10942;47.894;11.424;2024-01-15T16:32:30;0.30;99.90
21563;DHT22;10942;47.894;11.424;2024-01-15T16:34:55;0.20;99.90
21563;DHT22;10942;47.894;11.424;2024-01-15T16:37:21;0.30;99.90
21563;DHT22;10942;47.894;11.424;2024-01-15T16:39:47;0.20;99.90
21563;DHT22;10942;47.894;11.424;2024-01-15T16:42:13;0.20;99.90
21563;DHT22;10942;47.894;11.424;2024-01-15T16:44:38;0.20;99.90
21563;DHT22;10942;47.894;11.424;2024-01-15T16:47:05;0.30;99.90
21563;DHT22;10942;47.894;11.424;2024-01-15T16:49:30;0.20;99.90
21563;DHT22;10942;47.894;11.424;2024-01-15T16:51:56;0.20;99.90
21563;DHT22;10942;47.894;11.424;2024-01-15T16:54:22;0.20;99.90
21563;DHT22;10942;47.894;11.424;2024-01-15T16:56:49;0.20;99.90
21563;DHT22;10942;47.894;11.424;2024-01-15T16:59:15;0.20;99.90
21563;DHT22;10942;47.894;11.424;2024-01-15T17:01:41;0.20;99.90
21563;DHT22;10942;47.894;11.424;2024-01-15T17:04:07;0.30;99.90
21563;DHT22;10942;47.894;11.424;2024-01-15T17:06:32;0.20;99.90
21563;DHT22;10942;47.894;11.424;2024-01-15T17:08:58;0.30;99.90
21563;DHT22;10942;47.894;11.424;2024-01-15T17:11:24;0.20;99.90
21563;DHT22;10942;47.894;11.424;2024-01-15T17:13:52;0.30;99.90
21563;DHT22;10942;47.894;11.424;2024-01-15T17:16:18;0.30;99.90
21563;DHT22;10942;47.894;11.424;2024-01-15T17:18:44;0.20;99.90
21563;DHT22;10942;47.894;11.424;2024-01-15T17:21:10;0.20;99.90
21563;DHT22;10942;47.894;11.424;2024-01-15T17:23:35;0.10;99.90
21563;DHT22;10942;47.894;11.424;2024-01-15T17:26:02;0.10;99.90
21563;DHT22;10942;47.894;11.424;2024-01-15T17:28:28;0.10;99.90
21563;DHT22;10942;47.894;11.424;2024-01-15T17:30:53;0.20;99.90
21563;DHT22;10942;47.894;11.424;2024-01-15T17:33:19;0.20;99.90
21563;DHT22;10942;47.894;11.424;2024-01-15T17:35:51;0.10;99.90
21563;DHT22;10942;47.894;11.424;2024-01-15T17:38:18;0.10;99.90
21563;DHT22;10942;47.894;11.424;2024-01-15T17:40:44;0.20;99.90
21563;DHT22;10942;47.894;11.424;2024-01-15T17:43:10;0.20;99.90
21563;DHT22;10942;47.894;11.424;2024-01-15T17:45:36;0.10;99.90
21563;DHT22;10942;47.894;11.424;2024-01-15T17:48:02;0.10;99.90
21563;DHT22;10942;47.894;11.424;2024-01-15T17:50:28;0.10;99.90
21563;DHT22;10942;47.894;11.424;2024-01-15T17:52:54;0.00;99.90
21563;DHT22;10942;47.894;11.424;2024-01-15T17:55:21;0.10;99.90
21563;DHT22;10942;47.894;11.424;2024-01-15T17:57:49;0.00;99.90
21563;DHT22;10942;47.894;11.424;2024-01-15T18:00:15;0.00;99.90
21563;DHT22;10942;47.894;11.424;2024-01-15T18:02:41;0.00;99.90
21563;DHT22;10942;47.894;11.424;2024-01-15T18:05:06;-0.10;99.90
21563;DHT22;10942;47.894;11.424;2024-01-15T18:07:32;-0.10;99.90
21563;DHT22;10942;47.894;11.424;2024-01-15T18:09:58;-0.10;99.90
21563;DHT22;10942;47.894;11.424;2024-01-15T18:12:24;-0.10;99.90
21563;DHT22;10942;47.894;11.424;2024-01-15T18:14:51;-0.20;99.90
21563;DHT22;10942;47.894;11.424;2024-01-15T18:17:16;-0.10;99.90
21563;DHT22;10942;47.894;11.424;2024-01-15T18:19:42;-0.10;99.90
21563;DHT22;10942;47.894;11.424;2024-01-15T18:22:08;-0.10;99.90
21563;DHT22;10942;47.894;11.424;2024-01-15T18:24:35;-0.10;99.90
21563;DHT22;10942;47.894;11.424;2024-01-15T18:27:00;-0.10;99.90
21563;DHT22;10942;47.894;11.424;2024-01-15T18:29:29;-0.10;99.90
21563;DHT22;10942;47.894;11.424;2024-01-15T18:31:54;-0.10;99.90
21563;DHT22;10942;47.894;11.424;2024-01-15T18:34:20;-0.10;99.90
21563;DHT22;10942;47.894;11.424;2024-01-15T18:36:46;-0.20;99.90
21563;DHT22;10942;47.894;11.424;2024-01-15T18:39:13;-0.30;99.90
21563;DHT22;10942;47.894;11.424;2024-01-15T18:41:41;-0.30;99.90
21563;DHT22;10942;47.894;11.424;2024-01-15T18:44:07;-0.30;99.90
21563;DHT22;10942;47.894;11.424;2024-01-15T18:46:33;-0.50;99.90
21563;DHT22;10942;47.894;11.424;2024-01-15T18:48:59;-0.40;99.90
21563;DHT22;10942;47.894;11.424;2024-01-15T18:51:24;-0.60;99.90
21563;DHT22;10942;47.894;11.424;2024-01-15T18:53:50;-0.60;99.90
21563;DHT22;10942;47.894;11.424;2024-01-15T18:56:16;-0.50;99.90
21563;DHT22;10942;47.894;11.424;2024-01-15T18:58:43;-0.60;99.90
21563;DHT22;10942;47.894;11.424;2024-01-15T19:01:10;-0.60;99.90
21563;DHT22;10942;47.894;11.424;2024-01-15T19:03:36;-0.70;99.90
21563;DHT22;10942;47.894;11.424;2024-01-15T19:06:02;-0.60;99.90
21563;DHT22;10942;47.894;11.424;2024-01-15T19:08:28;-0.60;99.90
21563;DHT22;10942;47.894;11.424;2024-01-15T19:13:21;-0.80;99.90
21563;DHT22;10942;47.894;11.424;2024-01-15T19:15:48;-0.80;99.90
21563;DHT22;10942;47.894;11.424;2024-01-15T19:18:14;-0.90;99.90
21563;DHT22;10942;47.894;11.424;2024-01-15T19:20:41;-0.90;99.90
21563;DHT22;10942;47.894;11.424;2024-01-15T19:23:07;-0.90;99.90
21563;DHT22;10942;47.894;11.424;2024-01-15T19:25:34;-0.90;99.90
21563;DHT22;10942;47.894;11.424;2024-01-15T19:28:00;-1.00;99.90
21563;DHT22;10942;47.894;11.424;2024-01-15T19:30:28;-1.00;99.90
21563;DHT22;10942;47.894;11.424;2024-01-15T19:32:54;-0.90;99.90
21563;DHT22;10942;47.894;11.424;2024-01-15T19:35:19;-1.00;99.90
21563;DHT22;10942;47.894;11.424;2024-01-15T19:37:45;-1.00;99.90
21563;DHT22;10942;47.894;11.424;2024-01-15T19:40:11;-1.10;99.90
21563;DHT22;10942;47.894;11.424;2024-01-15T19:42:37;-1.00;99.90
21563;DHT22;10942;47.894;11.424;2024-01-15T19:45:03;-0.90;99.90
21563;DHT22;10942;47.894;11.424;2024-01-15T19:47:29;-1.00;99.90
21563;DHT22;10942;47.894;11.424;2024-01-15T19:49:55;-1.00;99.90
21563;DHT22;10942;47.894;11.424;2024-01-15T19:52:20;-1.00;99.90
21563;DHT22;10942;47.894;11.424;2024-01-15T19:54:46;-1.00;99.90
21563;DHT22;10942;47.894;11.424;2024-01-15T19:57:15;-1.00;99.90
21563;DHT22;10942;47.894;11.424;2024-01-15T19:59:41;-1.00;99.90
21563;DHT22;10942;47.894;11.424;2024-01-15T20:02:06;-1.00;99.90
21563;DHT22;10942;47.894;11.424;2024-01-15T20:04:32;-1.00;99.90
21563;DHT22;10942;47.894;11.424;2024-01-15T20:06:58;-1.10;99.90
21563;DHT22;10942;47.894;11.424;2024-01-15T20:09:24;-1.00;99.90
21563;DHT22;10942;47.894;11.424;2024-01-15T20:11:50;-1.10;99.90
21563;DHT22;10942;47.894;11.424;2024-01-15T20:14:16;-1.10;99.90
21563;DHT22;10942;47.894;11.424;2024-01-15T20:16:42;-1.00;99.90
21563;DHT22;10942;47.894;11.424;2024-01-15T20:19:08;-1.10;99.90
21563;DHT22;10942;47.894;11.424;2024-01-15T20:21:33;-1.10;99.90
21563;DHT22;10942;47.894;11.424;2024-01-15T20:24:01;-1.10;99.90
21563;DHT22;10942;47.894;11.424;2024-01-15T20:26:27;-1.00;99.90
21563;DHT22;10942;47.894;11.424;2024-01-15T20:28:53;-1.10;99.90
21563;DHT22;10942;47.894;11.424;2024-01-15T20:31:19;-1.10;99.90
21563;DHT22;10942;47.894;11.424;2024-01-15T20:33:45;-1.10;99.90
21563;DHT22;10942;47.894;11.424;2024-01-15T20:36:11;-1.20;99.90
21563;DHT22;10942;47.894;11.424;2024-01-15T20:38:38;-1.20;99.90
21563;DHT22;10942;47.894;11.424;2024-01-15T20:41:05;-1.20;99.90
21563;DHT22;10942;47.894;11.424;2024-01-15T20:43:32;-1.20;99.90
21563;DHT22;10942;47.894;11.424;2024-01-15T20:46:00;-1.20;99.90